Hubbard, Minnesota
Current Conditions -  °F | °C
As of 4:53 AM on Friday 24 Oct 2014 (Local Time) from KPKD Reporting Station
Clear Clear  
Wind Chill: 44°   Ceiling: Unl
Heat Index: 47°   Visibility: 10mi
Dew Point: 41°   Wind: 6mph
Humidity: 80%   Direction: 150°SSE
Pressure: 29.83"   Gusts: NA
Location:  46.9966°N, 95.0029°W
Report Text: KPKD 240953Z AUTO 15005KT 10SM CLR 08/05 A2983 RMK AO2 SLP106 T00830050 TSNO
Loading
Personal Weather Stations






























Interactive Weather Map
Tropical Storm Tracking
New forecast layout! Learn more

10-Day Weather Forecast

Advertisements
Track Severe Weather on mobile